createdAt,value
2022-09-15T00:01:16.513Z,14.85
2022-09-15T00:03:44.761Z,14.94
2022-09-15T00:06:12.775Z,14.85
2022-09-15T00:08:41.267Z,15.01
2022-09-15T00:11:13.283Z,15.03
2022-09-15T00:13:41.859Z,15.04
2022-09-15T00:16:15.019Z,15.00
2022-09-15T00:18:44.261Z,14.94
2022-09-15T00:21:14.625Z,15.03
2022-09-15T00:23:42.656Z,14.98
2022-09-15T00:26:14.674Z,14.97
2022-09-15T00:28:43.350Z,14.88
2022-09-15T00:31:14.191Z,14.99
2022-09-15T00:33:42.818Z,15.15
2022-09-15T00:36:13.975Z,15.11
2022-09-15T00:38:42.768Z,14.94
2022-09-15T00:41:14.833Z,14.81
2022-09-15T00:43:46.594Z,14.92
2022-09-15T00:46:15.874Z,14.85
2022-09-15T00:48:49.939Z,14.95
2022-09-15T00:51:22.175Z,14.98
2022-09-15T00:53:51.858Z,14.93
2022-09-15T00:56:23.372Z,14.82
2022-09-15T00:58:55.951Z,14.75
2022-09-15T01:01:28.051Z,14.56
2022-09-15T01:03:56.715Z,14.66
2022-09-15T01:06:31.843Z,14.66
2022-09-15T01:09:06.983Z,14.86
2022-09-15T01:11:37.016Z,14.88
2022-09-15T01:14:05.729Z,14.92
2022-09-15T01:16:45.739Z,14.98
2022-09-15T01:19:35.244Z,14.72
2022-09-15T01:22:15.132Z,14.60
2022-09-15T01:24:51.808Z,14.65
2022-09-15T01:27:55.417Z,14.47
2022-09-15T01:30:25.527Z,14.62
2022-09-15T01:33:14.812Z,14.62
2022-09-15T01:35:57.038Z,14.81
2022-09-15T01:38:34.604Z,14.71
2022-09-15T01:41:08.007Z,14.34
2022-09-15T01:43:40.923Z,14.40
2022-09-15T01:46:12.167Z,14.37
2022-09-15T01:48:43.278Z,14.66
2022-09-15T01:51:12.039Z,14.25
2022-09-15T01:53:41.712Z,14.23
2022-09-15T01:56:12.225Z,14.08
2022-09-15T01:58:41.541Z,14.12
2022-09-15T02:01:15.968Z,14.11
2022-09-15T02:03:49.014Z,14.07
2022-09-15T02:06:24.750Z,14.22
2022-09-15T02:08:58.643Z,14.20
2022-09-15T02:11:28.063Z,14.03
2022-09-15T02:14:11.478Z,14.28
2022-09-15T02:16:46.710Z,14.57
2022-09-15T02:19:20.323Z,14.71
2022-09-15T02:21:56.213Z,14.66
2022-09-15T02:24:30.292Z,14.56
2022-09-15T02:26:59.478Z,14.73
2022-09-15T02:29:28.799Z,14.74
2022-09-15T02:32:06.779Z,14.63
2022-09-15T02:34:38.431Z,14.82
2022-09-15T02:37:06.875Z,14.61
2022-09-15T02:39:38.334Z,14.74
2022-09-15T02:42:07.047Z,14.78
2022-09-15T02:44:37.642Z,14.62
2022-09-15T02:47:07.590Z,14.35
2022-09-15T02:49:35.557Z,14.56
2022-09-15T02:52:03.907Z,14.78
2022-09-15T02:54:32.147Z,14.57
2022-09-15T02:57:01.097Z,14.76
2022-09-15T02:59:49.628Z,14.83
2022-09-15T03:02:20.552Z,14.96
2022-09-15T03:04:49.131Z,14.25
2022-09-15T03:07:17.205Z,14.28
2022-09-15T03:09:45.168Z,14.03
2022-09-15T03:12:13.269Z,13.89
2022-09-15T03:14:41.272Z,13.93
2022-09-15T03:17:09.243Z,14.00
2022-09-15T03:19:38.886Z,14.25
2022-09-15T03:22:06.943Z,14.44
2022-09-15T03:24:35.003Z,14.18
2022-09-15T03:27:02.981Z,14.26
2022-09-15T03:29:31.047Z,14.26
2022-09-15T03:31:59.164Z,14.23
2022-09-15T03:34:27.232Z,14.37
2022-09-15T03:36:56.595Z,13.82
2022-09-15T03:39:24.795Z,13.44
2022-09-15T03:41:52.778Z,13.78
2022-09-15T03:44:20.785Z,14.01
2022-09-15T03:46:48.795Z,13.69
2022-09-15T03:49:16.825Z,13.82
2022-09-15T03:51:44.942Z,13.91
2022-09-15T03:54:14.295Z,14.09
2022-09-15T03:56:42.566Z,13.97
2022-09-15T03:59:10.883Z,14.15
2022-09-15T04:01:39.315Z,14.32
2022-09-15T04:04:07.337Z,14.32
2022-09-15T04:06:35.622Z,14.34
2022-09-15T04:09:03.856Z,14.52
2022-09-15T04:11:33.257Z,14.37
2022-09-15T04:14:01.536Z,14.42
2022-09-15T04:16:29.796Z,14.40
2022-09-15T04:18:58.186Z,14.63
2022-09-15T04:21:27.320Z,14.38
2022-09-15T04:23:57.450Z,14.39
2022-09-15T04:26:29.959Z,14.35
2022-09-15T04:29:03.857Z,14.64
2022-09-15T04:31:33.152Z,14.55
2022-09-15T04:34:01.318Z,14.54
2022-09-15T04:36:31.433Z,14.24
2022-09-15T04:38:59.625Z,14.28
2022-09-15T04:41:28.514Z,14.17
2022-09-15T04:43:56.668Z,14.14
2022-09-15T04:46:26.473Z,14.03
2022-09-15T04:48:54.537Z,14.40
2022-09-15T04:51:23.660Z,14.06
2022-09-15T04:53:52.388Z,14.11
2022-09-15T04:56:22.548Z,14.07
2022-09-15T04:58:53.190Z,13.84
2022-09-15T05:01:24.483Z,13.41
2022-09-15T05:03:54.607Z,13.58
2022-09-15T05:06:25.038Z,13.96
2022-09-15T05:08:54.992Z,14.06
2022-09-15T05:11:23.865Z,14.21
2022-09-15T05:13:52.667Z,14.24
2022-09-15T05:16:25.198Z,14.08
2022-09-15T05:18:56.459Z,14.15
2022-09-15T05:21:24.896Z,13.97
2022-09-15T05:23:53.380Z,13.77
2022-09-15T05:26:23.606Z,14.21
2022-09-15T05:28:55.697Z,13.97
2022-09-15T05:31:26.758Z,13.67
2022-09-15T05:33:56.595Z,13.71
2022-09-15T05:36:25.902Z,13.89
2022-09-15T05:38:56.567Z,13.64
2022-09-15T05:41:25.491Z,13.70
2022-09-15T05:43:56.842Z,13.82
2022-09-15T05:46:26.099Z,13.82
2022-09-15T05:48:56.593Z,14.24
2022-09-15T05:51:25.515Z,13.97
2022-09-15T05:53:53.501Z,14.02
2022-09-15T05:56:22.002Z,13.88
2022-09-15T05:58:50.480Z,13.68
2022-09-15T06:01:21.013Z,13.68
2022-09-15T06:03:49.503Z,14.03
2022-09-15T06:06:18.941Z,13.89
2022-09-15T06:08:51.913Z,13.86
2022-09-15T06:11:25.736Z,13.96
2022-09-15T06:13:53.807Z,14.00
2022-09-15T06:16:23.779Z,13.70
2022-09-15T06:18:53.381Z,13.73
2022-09-15T06:21:24.359Z,13.87
2022-09-15T06:23:55.029Z,13.99
2022-09-15T06:26:24.607Z,14.00
2022-09-15T06:28:54.320Z,14.01
2022-09-15T06:31:23.365Z,14.05
2022-09-15T06:33:54.123Z,14.08
2022-09-15T06:36:26.054Z,14.04
2022-09-15T06:38:54.611Z,14.20
2022-09-15T06:41:22.967Z,13.95
2022-09-15T06:43:51.460Z,14.09
2022-09-15T06:46:21.503Z,14.33
2022-09-15T06:48:51.396Z,14.53
2022-09-15T06:51:23.934Z,14.19
2022-09-15T06:53:52.452Z,14.03
2022-09-15T06:56:22.231Z,14.26
2022-09-15T06:58:50.298Z,14.43
2022-09-15T07:01:23.471Z,14.64
2022-09-15T07:03:52.120Z,14.63
2022-09-15T07:06:20.241Z,14.65
2022-09-15T07:08:50.870Z,14.70
2022-09-15T07:11:19.434Z,14.75
2022-09-15T07:13:49.206Z,14.84
2022-09-15T07:16:18.957Z,14.93
2022-09-15T07:18:47.752Z,14.38
2022-09-15T07:21:17.959Z,14.40
2022-09-15T07:23:46.235Z,14.34
2022-09-15T07:26:17.066Z,14.47
2022-09-15T07:28:47.245Z,14.59
2022-09-15T07:31:17.374Z,14.92
2022-09-15T07:33:45.713Z,15.03
2022-09-15T07:36:13.870Z,14.90
2022-09-15T07:38:43.819Z,15.02
2022-09-15T07:41:13.303Z,15.21
2022-09-15T07:43:46.891Z,14.97
2022-09-15T07:46:15.573Z,15.01
2022-09-15T07:48:45.693Z,15.13
2022-09-15T07:51:14.305Z,15.36
2022-09-15T07:53:42.255Z,15.36
2022-09-15T07:56:10.737Z,15.21
2022-09-15T07:58:38.771Z,15.28
2022-09-15T08:01:11.170Z,15.42
2022-09-15T08:03:41.426Z,15.40
2022-09-15T08:06:10.930Z,15.32
2022-09-15T08:08:39.868Z,15.23
2022-09-15T08:11:09.039Z,15.12
2022-09-15T08:13:37.749Z,15.16
2022-09-15T08:16:09.493Z,15.27
2022-09-15T08:18:38.311Z,15.54
2022-09-15T08:21:07.273Z,15.59
2022-09-15T08:23:35.453Z,15.54
2022-09-15T08:26:08.049Z,15.51
2022-09-15T08:28:39.345Z,15.43
2022-09-15T08:31:11.424Z,15.56
2022-09-15T08:33:45.255Z,15.50
2022-09-15T08:36:14.234Z,15.70
2022-09-15T08:38:46.529Z,15.48
2022-09-15T08:41:18.346Z,16.02
2022-09-15T08:43:49.487Z,15.86
2022-09-15T08:46:22.429Z,15.58
2022-09-15T08:49:02.029Z,15.63
2022-09-15T08:51:37.378Z,16.08
2022-09-15T08:54:12.006Z,15.77
2022-09-15T08:56:42.608Z,15.97
2022-09-15T08:59:16.011Z,16.24
2022-09-15T09:01:58.067Z,16.30
2022-09-15T09:04:41.448Z,16.08
2022-09-15T09:07:24.014Z,16.18
2022-09-15T09:09:57.959Z,16.15
2022-09-15T09:12:41.154Z,16.26
2022-09-15T09:15:24.211Z,15.96
2022-09-15T09:18:16.636Z,16.20
2022-09-15T09:20:56.399Z,16.16
2022-09-15T09:23:28.163Z,16.26
2022-09-15T09:25:57.850Z,15.98
2022-09-15T09:28:31.956Z,16.13
2022-09-15T09:31:08.118Z,16.26
2022-09-15T09:33:47.827Z,16.26
2022-09-15T09:36:16.145Z,16.24
2022-09-15T09:38:46.418Z,16.40
2022-09-15T09:41:16.426Z,16.41
2022-09-15T09:43:47.646Z,16.35
2022-09-15T09:46:17.680Z,16.49
2022-09-15T09:48:50.474Z,16.58
2022-09-15T09:51:31.885Z,16.37
2022-09-15T09:54:05.405Z,16.57
2022-09-15T09:56:33.730Z,16.60
2022-09-15T09:59:03.580Z,16.58
2022-09-15T10:01:32.070Z,16.65
2022-09-15T10:04:19.053Z,16.56
2022-09-15T10:06:47.683Z,16.47
2022-09-15T10:09:18.170Z,16.58
2022-09-15T10:11:48.283Z,16.58
2022-09-15T10:14:20.895Z,16.41
2022-09-15T10:17:05.485Z,16.61
2022-09-15T10:19:37.663Z,16.45
2022-09-15T10:22:06.186Z,16.30
2022-09-15T10:24:35.767Z,16.38
2022-09-15T10:27:18.741Z,16.45
2022-09-15T10:29:47.093Z,16.48
2022-09-15T10:32:25.515Z,16.66
2022-09-15T10:35:12.478Z,16.56
2022-09-15T10:38:00.110Z,16.76
2022-09-15T10:40:40.500Z,16.76
2022-09-15T10:43:25.816Z,16.77
2022-09-15T10:46:03.269Z,16.67
2022-09-15T10:48:45.695Z,16.85
2022-09-15T10:51:27.619Z,16.51
2022-09-15T10:54:11.128Z,16.88
2022-09-15T10:56:43.622Z,16.96
2022-09-15T10:59:35.363Z,16.95
2022-09-15T11:02:25.554Z,17.03
2022-09-15T11:05:11.700Z,16.86
2022-09-15T11:07:51.548Z,17.17
2022-09-15T11:10:24.436Z,17.38
2022-09-15T11:13:00.643Z,17.46
2022-09-15T11:15:48.882Z,17.30
2022-09-15T11:18:39.765Z,17.55
2022-09-15T11:21:19.456Z,17.36
2022-09-15T11:23:58.249Z,17.58
2022-09-15T11:26:32.446Z,17.68
2022-09-15T11:29:06.717Z,17.59
2022-09-15T11:31:40.250Z,17.83
2022-09-15T11:34:17.015Z,17.86
2022-09-15T11:36:50.540Z,17.77
2022-09-15T11:39:23.931Z,17.88
2022-09-15T11:41:57.498Z,17.87
2022-09-15T11:44:30.545Z,18.00
2022-09-15T11:47:11.977Z,18.00
2022-09-15T11:49:45.449Z,18.03
2022-09-15T11:52:27.310Z,18.01
2022-09-15T11:55:04.636Z,18.14
2022-09-15T11:57:39.744Z,18.24
2022-09-15T12:00:13.638Z,18.34
2022-09-15T12:02:47.415Z,18.48
2022-09-15T12:05:22.205Z,18.34
2022-09-15T12:07:56.260Z,18.00
2022-09-15T12:10:30.384Z,18.41
2022-09-15T12:13:01.183Z,18.36
2022-09-15T12:15:29.975Z,18.15
2022-09-15T12:18:27.314Z,17.82
2022-09-15T12:21:03.287Z,18.13
2022-09-15T12:23:35.038Z,18.30
2022-09-15T12:26:14.379Z,18.20
2022-09-15T12:28:54.333Z,18.30
2022-09-15T12:31:32.019Z,18.27
2022-09-15T12:34:01.574Z,18.31
2022-09-15T12:36:42.220Z,18.17
2022-09-15T12:39:32.396Z,18.04
2022-09-15T12:42:15.301Z,18.15
2022-09-15T12:44:47.681Z,18.14
2022-09-15T12:47:28.355Z,18.23
2022-09-15T12:49:59.739Z,18.00
2022-09-15T12:52:28.992Z,18.03
2022-09-15T12:55:01.831Z,18.05
2022-09-15T12:57:34.545Z,18.03
2022-09-15T13:00:29.131Z,18.14
2022-09-15T13:02:57.347Z,17.95
2022-09-15T13:06:15.676Z,17.96
2022-09-15T13:08:52.131Z,17.97
2022-09-15T13:11:26.863Z,18.09
2022-09-15T13:14:10.648Z,17.58
2022-09-15T13:16:47.149Z,17.80
2022-09-15T13:19:18.328Z,17.95
2022-09-15T13:21:53.356Z,17.92
2022-09-15T13:24:29.087Z,17.93
2022-09-15T13:26:57.735Z,17.96
2022-09-15T13:29:32.726Z,18.22
2022-09-15T13:32:11.179Z,18.06
2022-09-15T13:35:16.819Z,18.13
2022-09-15T13:38:32.122Z,18.23
2022-09-15T13:41:35.305Z,18.17
2022-09-15T13:44:38.980Z,18.43
2022-09-15T13:47:35.083Z,18.76
2022-09-15T13:50:21.487Z,18.33
2022-09-15T13:53:04.168Z,18.84
2022-09-15T13:55:38.684Z,19.16
2022-09-15T14:01:02.257Z,18.85
2022-09-15T14:03:41.841Z,19.12
2022-09-15T14:06:16.338Z,18.70
2022-09-15T14:08:46.927Z,18.88
2022-09-15T14:11:21.917Z,18.98
2022-09-15T14:13:52.115Z,18.83
2022-09-15T14:16:25.145Z,18.46
2022-09-15T14:18:57.660Z,18.56
2022-09-15T14:21:28.251Z,18.50
2022-09-15T14:23:57.650Z,18.54
2022-09-15T14:26:27.950Z,18.42
2022-09-15T14:28:58.567Z,18.50
2022-09-15T14:31:31.754Z,18.56
2022-09-15T14:34:02.232Z,18.51
2022-09-15T14:36:32.593Z,18.56
2022-09-15T14:39:18.896Z,18.33
2022-09-15T14:41:48.745Z,18.52
2022-09-15T14:47:24.024Z,18.38
2022-09-15T14:50:07.337Z,18.25
2022-09-15T14:52:40.123Z,18.45
2022-09-15T14:55:31.051Z,18.29
2022-09-15T14:58:04.122Z,18.40
2022-09-15T15:00:36.762Z,18.43
2022-09-15T15:03:18.697Z,18.22
2022-09-15T15:06:02.734Z,18.24
2022-09-15T15:08:37.006Z,18.39
2022-09-15T15:11:10.775Z,18.58
2022-09-15T15:13:43.397Z,18.79
2022-09-15T15:16:19.967Z,18.63
2022-09-15T15:18:48.204Z,18.60
2022-09-15T15:21:46.521Z,18.66
2022-09-15T15:24:23.988Z,18.90
2022-09-15T15:26:53.586Z,19.03
2022-09-15T15:29:42.657Z,18.91
2022-09-15T15:32:15.966Z,18.83
2022-09-15T15:34:52.196Z,18.85
2022-09-15T15:37:29.310Z,18.26
2022-09-15T15:39:58.411Z,18.91
2022-09-15T15:42:28.858Z,18.99
2022-09-15T15:45:02.614Z,18.83
2022-09-15T15:47:36.869Z,19.03
2022-09-15T15:50:13.584Z,19.02
2022-09-15T15:52:44.976Z,19.21
2022-09-15T15:55:17.380Z,19.23
2022-09-15T15:57:46.164Z,19.10
2022-09-15T16:00:22.120Z,18.92
2022-09-15T16:02:51.027Z,18.67
2022-09-15T16:05:20.620Z,18.72
2022-09-15T16:07:54.182Z,18.63
2022-09-15T16:10:24.614Z,18.78
2022-09-15T16:12:52.960Z,18.58
2022-09-15T16:15:22.669Z,18.57
2022-09-15T16:17:51.010Z,18.44
2022-09-15T16:20:25.131Z,18.61
2022-09-15T16:22:54.786Z,18.64
2022-09-15T16:25:29.837Z,18.85
2022-09-15T16:27:57.824Z,18.67
2022-09-15T16:30:25.791Z,18.61
2022-09-15T16:32:53.922Z,18.69
2022-09-15T16:35:32.036Z,18.38
2022-09-15T16:38:01.436Z,18.60
2022-09-15T16:40:29.629Z,18.60
2022-09-15T16:42:57.950Z,18.65
2022-09-15T16:45:35.250Z,18.60
2022-09-15T16:48:06.545Z,18.27
2022-09-15T16:50:34.573Z,18.31
2022-09-15T16:53:04.157Z,18.23
2022-09-15T16:55:36.251Z,18.35
2022-09-15T16:58:05.368Z,18.32
2022-09-15T17:00:35.249Z,18.32
2022-09-15T17:03:04.346Z,18.25
2022-09-15T17:05:36.872Z,18.29
2022-09-15T17:08:09.841Z,18.19
2022-09-15T17:10:38.593Z,18.17
2022-09-15T17:13:09.034Z,18.06
2022-09-15T17:15:39.453Z,18.08
2022-09-15T17:18:09.923Z,17.87
2022-09-15T17:20:41.014Z,17.09
2022-09-15T17:23:18.967Z,17.64
2022-09-15T17:25:52.749Z,17.75
2022-09-15T17:28:22.622Z,17.82
2022-09-15T17:30:52.295Z,17.83
2022-09-15T17:33:21.704Z,17.76
2022-09-15T17:35:50.427Z,17.90
2022-09-15T17:38:21.649Z,17.86
2022-09-15T17:40:51.256Z,17.83
2022-09-15T17:43:21.209Z,17.76
2022-09-15T17:45:55.741Z,17.83
2022-09-15T17:48:24.347Z,17.76
2022-09-15T17:50:53.120Z,17.52
2022-09-15T17:53:26.586Z,17.53
2022-09-15T17:55:55.946Z,17.54
2022-09-15T17:58:26.290Z,17.52
2022-09-15T18:00:55.005Z,17.41
2022-09-15T18:03:27.783Z,17.44
2022-09-15T18:05:58.266Z,17.32
2022-09-15T18:08:28.923Z,17.12
2022-09-15T18:10:57.013Z,17.00
2022-09-15T18:13:27.622Z,16.94
2022-09-15T18:15:56.054Z,16.98
2022-09-15T18:18:25.744Z,16.96
2022-09-15T18:20:56.736Z,17.00
2022-09-15T18:23:29.532Z,16.98
2022-09-15T18:25:58.681Z,16.93
2022-09-15T18:28:28.133Z,16.79
2022-09-15T18:31:03.928Z,16.09
2022-09-15T18:33:32.161Z,16.74
2022-09-15T18:36:02.133Z,16.94
2022-09-15T18:38:31.803Z,16.72
2022-09-15T18:41:00.358Z,16.16
2022-09-15T18:43:31.778Z,16.40
2022-09-15T18:46:07.179Z,16.34
2022-09-15T18:48:42.930Z,16.50
2022-09-15T18:51:16.290Z,16.33
2022-09-15T18:53:53.382Z,16.41
2022-09-15T18:56:24.102Z,16.21
2022-09-15T18:58:54.474Z,16.39
2022-09-15T19:01:27.178Z,16.26
2022-09-15T19:04:08.074Z,16.19
2022-09-15T19:06:40.714Z,15.57
2022-09-15T19:09:20.922Z,15.91
2022-09-15T19:11:53.293Z,16.03
2022-09-15T19:14:33.510Z,15.59
2022-09-15T19:17:01.660Z,15.41
2022-09-15T19:19:29.950Z,15.57
2022-09-15T19:21:58.279Z,15.40
2022-09-15T19:24:33.489Z,15.36
2022-09-15T19:27:02.516Z,15.81
2022-09-15T19:29:34.597Z,15.73
2022-09-15T19:32:02.909Z,15.87
2022-09-15T19:34:30.922Z,15.87
2022-09-15T19:36:58.914Z,15.74
2022-09-15T19:39:28.419Z,15.79
2022-09-15T19:41:56.462Z,15.66
2022-09-15T19:44:24.672Z,15.54
2022-09-15T19:46:53.124Z,15.65
2022-09-15T19:49:21.091Z,15.72
2022-09-15T19:51:55.340Z,15.61
2022-09-15T19:54:25.808Z,15.77
2022-09-15T19:56:56.055Z,15.27
2022-09-15T19:59:30.169Z,15.18
2022-09-15T20:01:59.845Z,15.43
2022-09-15T20:07:13.757Z,15.36
2022-09-15T20:09:44.553Z,15.51
2022-09-15T20:12:14.075Z,15.37
2022-09-15T20:14:42.612Z,15.41
2022-09-15T20:17:10.973Z,15.18
2022-09-15T20:19:39.114Z,15.30
2022-09-15T20:22:07.089Z,15.28
2022-09-15T20:24:35.086Z,15.10
2022-09-15T20:27:04.680Z,15.02
2022-09-15T20:29:34.466Z,15.18
2022-09-15T20:32:03.003Z,15.37
2022-09-15T20:34:31.264Z,15.33
2022-09-15T20:36:59.335Z,15.31
2022-09-15T20:39:27.447Z,15.21
2022-09-15T20:41:56.223Z,15.08
2022-09-15T20:44:24.379Z,15.01
2022-09-15T20:46:54.093Z,15.03
2022-09-15T20:49:22.153Z,14.94
2022-09-15T20:51:52.391Z,14.94
2022-09-15T20:54:20.531Z,14.89
2022-09-15T20:56:48.533Z,15.03
2022-09-15T20:59:16.585Z,14.87
2022-09-15T21:01:44.728Z,14.83
2022-09-15T21:04:14.251Z,14.56
2022-09-15T21:06:42.316Z,14.83
2022-09-15T21:09:10.274Z,14.66
2022-09-15T21:11:39.218Z,14.84
2022-09-15T21:14:07.631Z,14.85
2022-09-15T21:16:35.873Z,14.87
2022-09-15T21:19:04.273Z,14.88
2022-09-15T21:21:34.754Z,14.88
2022-09-15T21:24:04.970Z,14.97
2022-09-15T21:26:35.333Z,15.15
2022-09-15T21:29:04.300Z,15.27
2022-09-15T21:31:34.106Z,15.35
2022-09-15T21:34:02.329Z,14.91
2022-09-15T21:36:32.144Z,15.00
2022-09-15T21:39:02.877Z,14.85
2022-09-15T21:41:31.649Z,14.69
2022-09-15T21:44:01.142Z,14.72
2022-09-15T21:46:30.783Z,14.76
2022-09-15T21:49:00.594Z,15.10
2022-09-15T21:51:30.886Z,14.99
2022-09-15T21:54:01.554Z,15.07
2022-09-15T21:56:31.390Z,14.99
2022-09-15T21:58:59.629Z,15.00
2022-09-15T22:01:29.819Z,15.32
2022-09-15T22:03:59.588Z,15.41
2022-09-15T22:06:31.689Z,15.54
2022-09-15T22:09:02.903Z,15.76
2022-09-15T22:11:30.984Z,15.88
2022-09-15T22:13:59.135Z,15.86
2022-09-15T22:16:27.400Z,15.86
2022-09-15T22:18:57.114Z,15.90
2022-09-15T22:21:27.110Z,15.84
2022-09-15T22:23:57.202Z,15.96
2022-09-15T22:26:28.865Z,15.88
2022-09-15T22:28:57.559Z,15.90
2022-09-15T22:31:26.155Z,16.16
2022-09-15T22:33:54.575Z,16.21
2022-09-15T22:36:28.932Z,15.93
2022-09-15T22:39:03.785Z,16.23
2022-09-15T22:41:34.879Z,16.17
2022-09-15T22:44:03.252Z,15.93
2022-09-15T22:46:31.429Z,16.01
2022-09-15T22:48:59.776Z,16.04
2022-09-15T22:51:27.820Z,16.05
2022-09-15T22:53:57.172Z,16.07
2022-09-15T22:56:26.750Z,16.07
2022-09-15T22:58:59.819Z,16.15
2022-09-15T23:01:30.524Z,15.99
2022-09-15T23:03:59.847Z,15.83
2022-09-15T23:06:30.623Z,16.04
2022-09-15T23:09:00.938Z,16.31
2022-09-15T23:11:32.332Z,16.05
2022-09-15T23:14:02.660Z,16.13
2022-09-15T23:16:31.687Z,16.03
2022-09-15T23:18:59.858Z,16.21
2022-09-15T23:21:28.288Z,15.94
2022-09-15T23:23:56.314Z,16.01
2022-09-15T23:26:25.651Z,16.17
2022-09-15T23:28:54.150Z,16.19
2022-09-15T23:31:23.888Z,15.83
2022-09-15T23:33:51.883Z,16.08
2022-09-15T23:36:20.473Z,15.99
2022-09-15T23:38:49.752Z,16.06
2022-09-15T23:41:18.616Z,16.12
2022-09-15T23:43:47.152Z,16.07
2022-09-15T23:46:15.323Z,16.07
2022-09-15T23:48:45.000Z,16.09
2022-09-15T23:51:13.093Z,16.23
2022-09-15T23:53:42.168Z,16.19
2022-09-15T23:56:10.167Z,16.41
2022-09-15T23:58:38.207Z,16.24
